Terminal Aerodrome Forecast
Issued by NWS Louisville, KY

Home | Current Version | Previous Version | Text Only | Print | Product List | Glossary Off
Versions: 1 2 3 4 5 6 7 8 9 10 11 12 13 14 15

645
FTUS43 KLMK 220524
TAFLEX
TAF
KLEX 220524Z 2206/2306 00000KT P6SM SKC
     FM221000 09003KT 5SM BR SKC
     FM221230 06004KT P6SM FEW045=

USA.gov is the U.S. government's official web portal to all federal, state and local government web resources and services.